Time;durP1;ratioP1;P1;durP2;ratioP2;P2;SDS_P1;SDS_P2;PMS_P1;PMS_P2;Temp;Humidity;BMP_temperature;BMP_pressure;BME280_temperature;BME280_humidity;BME280_pressure;Samples;Min_cycle;Max_cycle;Signal;HPM_P1;HPM_P2
2024/01/22 00:00:28;;;;;;;20.60;11.63;;;;;;;;;;7369913;19;20451;-80
2024/01/22 00:02:54;;;;;;;21.95;11.80;;;;;;;;;;7379097;19;20469;-79
2024/01/22 00:05:19;;;;;;;15.85;10.57;;;;;;;;;;7371249;19;20010;-80
2024/01/22 00:07:44;;;;;;;20.98;11.85;;;;;;;;;;7368538;19;20002;-79
2024/01/22 00:10:10;;;;;;;18.70;10.93;;;;;;;;;;7389721;19;20010;-80
2024/01/22 00:12:36;;;;;;;20.02;10.82;;;;;;;;;;7367290;19;20023;-79
2024/01/22 00:15:02;;;;;;;19.98;10.60;;;;;;;;;;7373890;19;20006;-79
2024/01/22 00:17:27;;;;;;;18.73;11.02;;;;;;;;;;7374120;19;20003;-79
2024/01/22 00:19:53;;;;;;;18.48;10.68;;;;;;;;;;7390893;19;20043;-78
2024/01/22 00:22:18;;;;;;;19.05;10.80;;;;;;;;;;7412383;19;20010;-78
2024/01/22 00:24:43;;;;;;;19.77;11.32;;;;;;;;;;7389161;19;20002;-78
2024/01/22 00:27:08;;;;;;;19.92;10.23;;;;;;;;;;7392552;19;19998;-78
2024/01/22 00:29:34;;;;;;;17.15;9.65;;;;;;;;;;7387966;19;20010;-78
2024/01/22 00:31:59;;;;;;;18.45;10.00;;;;;;;;;;7392399;19;20119;-78
2024/01/22 00:34:24;;;;;;;18.20;9.95;;;;;;;;;;7411318;19;19994;-77
2024/01/22 00:36:50;;;;;;;15.73;9.10;;;;;;;;;;7393663;19;20003;-78
2024/01/22 00:39:15;;;;;;;17.30;9.63;;;;;;;;;;7390338;19;20021;-77
2024/01/22 00:41:40;;;;;;;15.90;9.25;;;;;;;;;;7378384;19;20002;-78
2024/01/22 00:44:06;;;;;;;20.05;8.45;;;;;;;;;;7372412;19;20123;-78
2024/01/22 00:46:31;;;;;;;14.98;8.70;;;;;;;;;;7396023;19;20006;-78
2024/01/22 00:48:57;;;;;;;16.50;8.98;;;;;;;;;;7371939;19;20233;-78
2024/01/22 00:51:22;;;;;;;17.17;9.40;;;;;;;;;;7372710;19;20002;-78
2024/01/22 00:53:47;;;;;;;18.35;8.70;;;;;;;;;;7373156;19;20090;-78
2024/01/22 00:56:12;;;;;;;18.48;8.30;;;;;;;;;;7374171;19;20019;-78
2024/01/22 00:58:38;;;;;;;14.13;8.15;;;;;;;;;;7397430;19;20002;-78
2024/01/22 01:01:04;;;;;;;16.80;8.50;;;;;;;;;;7373703;19;20026;-77
2024/01/22 01:03:30;;;;;;;16.63;8.77;;;;;;;;;;7369191;19;20007;-78
2024/01/22 01:05:55;;;;;;;18.45;8.13;;;;;;;;;;7371862;19;20045;-77
2024/01/22 01:08:20;;;;;;;17.58;9.20;;;;;;;;;;7371249;19;20042;-78
2024/01/22 01:10:46;;;;;;;20.90;7.72;;;;;;;;;;7371660;19;20035;-79
2024/01/22 01:13:11;;;;;;;17.10;7.88;;;;;;;;;;7392258;19;20074;-77
2024/01/22 01:15:36;;;;;;;17.92;8.65;;;;;;;;;;7370967;19;20025;-77
2024/01/22 01:18:02;;;;;;;14.20;7.82;;;;;;;;;;7372863;19;20689;-78
2024/01/22 01:20:27;;;;;;;13.23;7.95;;;;;;;;;;7374217;19;20009;-78
2024/01/22 01:22:52;;;;;;;14.35;7.55;;;;;;;;;;7373376;19;20002;-79
2024/01/22 01:25:17;;;;;;;14.27;7.85;;;;;;;;;;7393592;19;19998;-78
2024/01/22 01:27:43;;;;;;;15.15;7.43;;;;;;;;;;7368645;19;20010;-78
2024/01/22 01:30:10;;;;;;;13.32;7.68;;;;;;;;;;7369075;19;20002;-78
2024/01/22 01:32:36;;;;;;;14.60;7.53;;;;;;;;;;7371091;19;19999;-78
2024/01/22 01:35:01;;;;;;;14.65;6.80;;;;;;;;;;7367716;19;19996;-78
2024/01/22 01:37:26;;;;;;;14.05;7.68;;;;;;;;;;7389861;19;20082;-77
2024/01/22 01:39:51;;;;;;;13.13;7.38;;;;;;;;;;7369878;19;20031;-78
2024/01/22 01:42:17;;;;;;;11.95;6.68;;;;;;;;;;7370898;19;20010;-78
2024/01/22 01:44:49;;;;;;;18.08;8.10;;;;;;;;;;7376870;19;20481;-78
2024/01/22 01:47:15;;;;;;;15.90;7.47;;;;;;;;;;7382443;19;20006;-78
2024/01/22 01:49:40;;;;;;;12.80;7.43;;;;;;;;;;7393530;19;20007;-77
2024/01/22 01:52:06;;;;;;;15.73;6.88;;;;;;;;;;7370687;19;20483;-77
2024/01/22 01:54:32;;;;;;;15.77;8.02;;;;;;;;;;7369029;19;20036;-77
2024/01/22 01:56:57;;;;;;;15.05;8.10;;;;;;;;;;7369313;19;20078;-77
2024/01/22 01:59:23;;;;;;;12.75;7.00;;;;;;;;;;7370281;19;20081;-77
2024/01/22 02:01:49;;;;;;;13.10;7.43;;;;;;;;;;7369592;19;20074;-78
2024/01/22 02:04:14;;;;;;;15.35;7.30;;;;;;;;;;7389927;19;20024;-77
2024/01/22 02:06:40;;;;;;;12.65;6.70;;;;;;;;;;7369272;19;20532;-78
2024/01/22 02:09:06;;;;;;;14.68;7.35;;;;;;;;;;7369330;19;20002;-77
2024/01/22 02:11:32;;;;;;;15.73;7.57;;;;;;;;;;7369723;19;20498;-77
2024/01/22 02:13:57;;;;;;;17.48;9.25;;;;;;;;;;7369663;19;20010;-77
2024/01/22 02:16:23;;;;;;;24.27;12.40;;;;;;;;;;7392761;19;20015;-77
2024/01/22 02:18:48;;;;;;;42.70;23.15;;;;;;;;;;7370161;19;20029;-77
2024/01/22 02:21:16;;;;;;;59.53;33.65;;;;;;;;;;7371123;19;20006;-77
2024/01/22 02:23:41;;;;;;;85.40;43.65;;;;;;;;;;7369919;19;20031;-78
2024/01/22 02:26:07;;;;;;;18.13;9.90;;;;;;;;;;7369340;19;20074;-78
2024/01/22 02:28:32;;;;;;;11.73;5.90;;;;;;;;;;7390829;19;20017;-78
2024/01/22 02:30:58;;;;;;;11.18;5.32;;;;;;;;;;7369813;19;20354;-77
2024/01/22 02:33:24;;;;;;;11.93;5.32;;;;;;;;;;7368343;19;20074;-77
2024/01/22 02:35:49;;;;;;;9.85;4.97;;;;;;;;;;7369079;19;20685;-77
2024/01/22 02:38:15;;;;;;;13.65;5.30;;;;;;;;;;7369420;19;20022;-77
2024/01/22 02:40:40;;;;;;;9.70;4.22;;;;;;;;;;7391866;19;19999;-77
2024/01/22 02:43:05;;;;;;;9.15;4.78;;;;;;;;;;7369724;19;20402;-78
2024/01/22 02:45:31;;;;;;;10.95;4.60;;;;;;;;;;7369296;19;20011;-78
2024/01/22 02:47:56;;;;;;;10.52;4.60;;;;;;;;;;7366839;19;20011;-77
2024/01/22 02:50:21;;;;;;;8.73;4.07;;;;;;;;;;7367825;19;20021;-77
2024/01/22 02:52:47;;;;;;;8.98;4.03;;;;;;;;;;7368159;19;20006;-78
2024/01/22 02:55:12;;;;;;;13.77;5.95;;;;;;;;;;7387865;19;20010;-77
2024/01/22 02:57:37;;;;;;;12.15;7.43;;;;;;;;;;7366514;19;20017;-77
2024/01/22 03:00:05;;;;;;;15.57;10.02;;;;;;;;;;7367699;19;19998;-77
2024/01/22 03:02:30;;;;;;;11.15;6.65;;;;;;;;;;7368570;19;20018;-77
2024/01/22 03:04:56;;;;;;;10.23;4.40;;;;;;;;;;7366085;19;20331;-77
2024/01/22 03:07:21;;;;;;;11.02;5.38;;;;;;;;;;7387543;19;20035;-77
2024/01/22 03:09:46;;;;;;;8.73;4.85;;;;;;;;;;7366320;19;20139;-77
2024/01/22 03:12:12;;;;;;;10.05;4.90;;;;;;;;;;7365575;19;20003;-76
2024/01/22 03:14:37;;;;;;;9.23;3.92;;;;;;;;;;7365682;19;20920;-77
2024/01/22 03:17:02;;;;;;;9.60;3.83;;;;;;;;;;7366269;19;20028;-77
2024/01/22 03:19:28;;;;;;;10.20;4.28;;;;;;;;;;7388234;19;20057;-77
2024/01/22 03:21:53;;;;;;;11.13;4.35;;;;;;;;;;7367353;19;20015;-77
2024/01/22 03:24:20;;;;;;;9.65;4.57;;;;;;;;;;7367348;19;20006;-77
2024/01/22 03:26:45;;;;;;;9.50;4.45;;;;;;;;;;7367178;19;20010;-77
2024/01/22 03:29:11;;;;;;;9.95;4.60;;;;;;;;;;7372341;19;20015;-77
2024/01/22 03:31:37;;;;;;;9.82;4.50;;;;;;;;;;7395295;19;20019;-77
2024/01/22 03:34:03;;;;;;;9.85;5.05;;;;;;;;;;7373100;19;20028;-77
2024/01/22 03:36:28;;;;;;;9.57;4.43;;;;;;;;;;7373939;19;20006;-77
2024/01/22 03:38:53;;;;;;;7.53;3.97;;;;;;;;;;7369093;19;20028;-77
2024/01/22 03:41:19;;;;;;;10.77;4.40;;;;;;;;;;7375543;19;20011;-77
2024/01/22 03:43:44;;;;;;;6.68;3.65;;;;;;;;;;7380403;19;20007;-77
2024/01/22 03:46:11;;;;;;;9.20;4.25;;;;;;;;;;7405633;19;19995;-77
2024/01/22 03:48:37;;;;;;;8.82;3.92;;;;;;;;;;7380514;19;20421;-77
2024/01/22 03:51:02;;;;;;;8.90;4.22;;;;;;;;;;7378068;19;20040;-77
2024/01/22 03:53:28;;;;;;;11.23;4.00;;;;;;;;;;7373910;19;20969;-77
2024/01/22 03:55:53;;;;;;;7.95;4.07;;;;;;;;;;7363571;19;20002;-77
2024/01/22 03:58:19;;;;;;;9.43;4.00;;;;;;;;;;7386412;19;20108;-77
2024/01/22 04:00:44;;;;;;;8.13;3.70;;;;;;;;;;7366022;19;20085;-77
2024/01/22 04:03:10;;;;;;;9.35;4.40;;;;;;;;;;7364157;19;20581;-77
2024/01/22 04:05:35;;;;;;;8.30;4.57;;;;;;;;;;7365622;19;20011;-77
2024/01/22 04:08:00;;;;;;;10.45;4.43;;;;;;;;;;7365062;19;20016;-77
2024/01/22 04:10:26;;;;;;;9.90;3.85;;;;;;;;;;7386707;19;19999;-77
2024/01/22 04:13:14;;;;;;;12.90;5.47;;;;;;;;;;7369131;19;20385;-76
2024/01/22 04:15:40;;;;;;;13.75;7.22;;;;;;;;;;7371067;19;20037;-77
2024/01/22 04:18:06;;;;;;;12.77;6.00;;;;;;;;;;7371421;19;20006;-77
2024/01/22 04:20:32;;;;;;;7.43;3.95;;;;;;;;;;7371436;19;20006;-77
2024/01/22 04:22:57;;;;;;;11.90;2.65;;;;;;;;;;7377147;19;20354;-77
2024/01/22 04:25:22;;;;;;;8.57;2.50;;;;;;;;;;7402491;19;19999;-77
2024/01/22 04:27:50;;;;;;;7.30;2.28;;;;;;;;;;7376351;19;20006;-77
2024/01/22 04:30:16;;;;;;;6.28;2.05;;;;;;;;;;7377813;19;20020;-77
2024/01/22 04:32:41;;;;;;;8.57;2.22;;;;;;;;;;7381920;19;20014;-77
2024/01/22 04:35:07;;;;;;;4.07;1.92;;;;;;;;;;7383574;19;20013;-77
2024/01/22 04:37:32;;;;;;;5.70;2.00;;;;;;;;;;7394718;19;20078;-77
2024/01/22 04:40:09;;;;;;;5.68;2.10;;;;;;;;;;7371663;19;20002;-77
2024/01/22 04:42:34;;;;;;;5.45;2.05;;;;;;;;;;7369319;19;20564;-77
2024/01/22 04:45:00;;;;;;;7.53;2.25;;;;;;;;;;7370575;19;20013;-77
2024/01/22 04:47:25;;;;;;;9.13;2.45;;;;;;;;;;7370677;19;20031;-77
2024/01/22 04:49:50;;;;;;;6.13;2.00;;;;;;;;;;7371370;19;20536;-78
2024/01/22 04:52:16;;;;;;;7.70;2.67;;;;;;;;;;7393420;19;20692;-77
2024/01/22 04:54:41;;;;;;;5.28;2.10;;;;;;;;;;7372053;19;20014;-77
2024/01/22 04:57:06;;;;;;;4.18;2.17;;;;;;;;;;7373475;19;20017;-77
2024/01/22 04:59:32;;;;;;;7.05;3.22;;;;;;;;;;7374394;19;20013;-77
2024/01/22 05:01:57;;;;;;;5.68;2.40;;;;;;;;;;7370095;19;20313;-76
2024/01/22 05:04:22;;;;;;;8.65;2.85;;;;;;;;;;7389405;19;20001;-77
2024/01/22 05:06:48;;;;;;;6.75;2.60;;;;;;;;;;7370051;19;20039;-77
2024/01/22 05:09:14;;;;;;;8.02;2.45;;;;;;;;;;7390261;19;20006;-78
2024/01/22 05:11:40;;;;;;;7.28;3.03;;;;;;;;;;7386958;19;19998;-77
2024/01/22 05:14:05;;;;;;;8.18;2.92;;;;;;;;;;7387201;19;20027;-77
2024/01/22 05:16:32;;;;;;;5.60;2.58;;;;;;;;;;7419149;19;20023;-78
2024/01/22 05:18:57;;;;;;;7.43;2.70;;;;;;;;;;7395914;19;20006;-77
2024/01/22 05:21:23;;;;;;;5.30;2.53;;;;;;;;;;7394469;19;20345;-78
2024/01/22 05:23:49;;;;;;;6.53;2.80;;;;;;;;;;7375147;19;20010;-78
2024/01/22 05:26:14;;;;;;;7.68;2.83;;;;;;;;;;7370604;19;20006;-78
2024/01/22 05:28:40;;;;;;;6.45;2.53;;;;;;;;;;7390664;19;20395;-78
2024/01/22 05:31:05;;;;;;;6.28;2.53;;;;;;;;;;7371857;19;19999;-78
2024/01/22 05:33:30;;;;;;;3.95;2.35;;;;;;;;;;7369329;19;20595;-78
2024/01/22 05:35:56;;;;;;;5.57;2.47;;;;;;;;;;7370325;19;20013;-78
2024/01/22 05:38:22;;;;;;;5.38;2.75;;;;;;;;;;7369383;19;20049;-78
2024/01/22 05:40:47;;;;;;;5.38;2.53;;;;;;;;;;7370057;19;20036;-79
2024/01/22 05:43:13;;;;;;;5.00;2.35;;;;;;;;;;7391702;19;20010;-78
2024/01/22 05:45:39;;;;;;;4.97;2.38;;;;;;;;;;7369418;19;20007;-78
2024/01/22 05:48:06;;;;;;;8.35;2.47;;;;;;;;;;7368703;19;20277;-77
2024/01/22 05:50:32;;;;;;;8.02;2.55;;;;;;;;;;7368825;19;19999;-77
2024/01/22 05:52:57;;;;;;;6.22;2.65;;;;;;;;;;7368239;19;20027;-77
2024/01/22 05:55:22;;;;;;;10.50;3.00;;;;;;;;;;7389162;19;20014;-77
2024/01/22 05:57:48;;;;;;;5.85;2.40;;;;;;;;;;7366712;19;20357;-77
2024/01/22 06:00:14;;;;;;;8.02;2.53;;;;;;;;;;7368114;19;20069;-77
2024/01/22 06:02:40;;;;;;;5.63;2.40;;;;;;;;;;7368811;19;20005;-77
2024/01/22 06:05:06;;;;;;;7.22;2.88;;;;;;;;;;7368359;19;20766;-77
2024/01/22 06:07:31;;;;;;;10.73;2.63;;;;;;;;;;7388402;19;20019;-76
2024/01/22 06:09:58;;;;;;;8.00;2.67;;;;;;;;;;7367982;19;19998;-77
2024/01/22 06:12:24;;;;;;;5.45;2.53;;;;;;;;;;7368315;19;20010;-76
2024/01/22 06:14:50;;;;;;;6.72;2.40;;;;;;;;;;7365774;19;20003;-76
2024/01/22 06:17:15;;;;;;;6.15;2.58;;;;;;;;;;7365693;19;20007;-76
2024/01/22 06:19:40;;;;;;;6.47;2.90;;;;;;;;;;7386510;19;20009;-76
2024/01/22 06:22:06;;;;;;;5.50;2.70;;;;;;;;;;7370383;19;20731;-76
2024/01/22 06:24:34;;;;;;;6.50;2.47;;;;;;;;;;7366955;19;20013;-76
2024/01/22 06:27:00;;;;;;;5.38;2.50;;;;;;;;;;7367929;19;20013;-76
2024/01/22 06:29:25;;;;;;;7.95;3.20;;;;;;;;;;7366102;19;20010;-76
2024/01/22 06:31:50;;;;;;;5.57;2.40;;;;;;;;;;7366748;19;20006;-76
2024/01/22 06:34:16;;;;;;;7.07;2.72;;;;;;;;;;7384150;19;20037;-76
2024/01/22 06:36:41;;;;;;;5.55;2.45;;;;;;;;;;7367153;19;20078;-76
2024/01/22 06:39:09;;;;;;;8.77;2.75;;;;;;;;;;7367242;19;20007;-75
2024/01/22 06:41:35;;;;;;;7.32;2.58;;;;;;;;;;7367816;19;20090;-75
2024/01/22 06:44:00;;;;;;;5.82;2.47;;;;;;;;;;7367023;19;20015;-74
2024/01/22 06:46:26;;;;;;;4.65;2.63;;;;;;;;;;7388019;19;20006;-74
2024/01/22 06:48:51;;;;;;;5.75;2.60;;;;;;;;;;7364744;19;20013;-74
2024/01/22 06:51:16;;;;;;;7.55;2.42;;;;;;;;;;7366504;19;20011;-75
2024/01/22 06:53:42;;;;;;;6.53;2.30;;;;;;;;;;7366921;19;19998;-74
2024/01/22 06:56:08;;;;;;;5.00;2.30;;;;;;;;;;7367835;19;20010;-74
2024/01/22 06:58:33;;;;;;;5.85;2.35;;;;;;;;;;7387279;19;20100;-74
2024/01/22 07:00:59;;;;;;;4.70;2.38;;;;;;;;;;7367165;19;20006;-74
2024/01/22 07:03:24;;;;;;;7.43;2.42;;;;;;;;;;7363848;19;20054;-75
2024/01/22 07:05:50;;;;;;;4.53;2.28;;;;;;;;;;7367446;19;20024;-75
2024/01/22 07:08:15;;;;;;;4.95;2.55;;;;;;;;;;7367183;19;20022;-75
2024/01/22 07:10:41;;;;;;;6.57;2.70;;;;;;;;;;7388069;19;19999;-76
2024/01/22 07:13:07;;;;;;;4.53;2.40;;;;;;;;;;7377377;19;20007;-75
2024/01/22 07:15:32;;;;;;;5.78;2.30;;;;;;;;;;7367526;19;20007;-75
2024/01/22 07:17:58;;;;;;;7.53;2.72;;;;;;;;;;7365638;19;20010;-74
2024/01/22 07:20:23;;;;;;;6.03;2.22;;;;;;;;;;7366829;19;20018;-75
2024/01/22 07:22:49;;;;;;;5.93;2.28;;;;;;;;;;7366526;19;20027;-75
2024/01/22 07:25:15;;;;;;;6.30;2.08;;;;;;;;;;7387555;19;20114;-75
2024/01/22 07:27:42;;;;;;;3.65;1.80;;;;;;;;;;7364370;19;20002;-75
2024/01/22 07:30:08;;;;;;;5.60;1.98;;;;;;;;;;7370825;19;20018;-75
2024/01/22 07:32:36;;;;;;;5.72;1.98;;;;;;;;;;7367066;19;20014;-74
2024/01/22 07:35:10;;;;;;;7.15;2.17;;;;;;;;;;7365116;19;20024;-74
2024/01/22 07:37:37;;;;;;;2.97;1.90;;;;;;;;;;7386914;19;20010;-76
2024/01/22 07:40:04;;;;;;;8.02;2.13;;;;;;;;;;7366013;19;20021;-74
2024/01/22 07:42:41;;;;;;;3.97;1.98;;;;;;;;;;7366495;19;20494;-74
2024/01/22 07:45:08;;;;;;;5.32;1.90;;;;;;;;;;7365620;19;20006;-74
2024/01/22 07:47:34;;;;;;;6.75;2.17;;;;;;;;;;7368482;19;20033;-74
2024/01/22 07:49:59;;;;;;;5.50;1.83;;;;;;;;;;7372370;19;20015;-75
2024/01/22 07:52:25;;;;;;;4.78;1.98;;;;;;;;;;7394363;19;20003;-74
2024/01/22 07:54:50;;;;;;;4.88;1.90;;;;;;;;;;7369215;19;20006;-74
2024/01/22 07:57:16;;;;;;;6.10;1.90;;;;;;;;;;7369893;19;20006;-73
2024/01/22 07:59:42;;;;;;;7.00;1.83;;;;;;;;;;7372781;19;20079;-74
2024/01/22 08:02:07;;;;;;;6.13;2.05;;;;;;;;;;7371837;19;20017;-74
2024/01/22 08:04:33;;;;;;;6.60;2.17;;;;;;;;;;7394629;19;20492;-74
2024/01/22 08:07:00;;;;;;;4.72;2.20;;;;;;;;;;7371897;19;20551;-74
2024/01/22 08:09:45;;;;;;;6.28;2.10;;;;;;;;;;7372423;19;20045;-74
2024/01/22 08:12:10;;;;;;;4.18;1.80;;;;;;;;;;7371755;19;20092;-74
2024/01/22 08:14:36;;;;;;;3.72;1.60;;;;;;;;;;7368821;19;20011;-75
2024/01/22 08:17:01;;;;;;;4.93;2.17;;;;;;;;;;7373861;19;20535;-74
2024/01/22 08:19:28;;;;;;;5.60;2.10;;;;;;;;;;7394158;19;20753;-74
2024/01/22 08:21:54;;;;;;;7.45;2.20;;;;;;;;;;7372150;19;20002;-74
2024/01/22 08:24:19;;;;;;;4.93;2.05;;;;;;;;;;7371804;19;20547;-74
2024/01/22 08:26:45;;;;;;;4.00;1.75;;;;;;;;;;7372230;19;20013;-74
2024/01/22 08:29:11;;;;;;;4.35;2.20;;;;;;;;;;7371933;19;20014;-75
2024/01/22 08:31:37;;;;;;;3.38;1.60;;;;;;;;;;7394378;19;20500;-74
2024/01/22 08:34:03;;;;;;;4.90;2.10;;;;;;;;;;7373211;19;20013;-75
2024/01/22 08:36:28;;;;;;;4.53;2.13;;;;;;;;;;7379850;19;20011;-74
2024/01/22 08:38:54;;;;;;;4.00;1.70;;;;;;;;;;7372598;19;20019;-74
2024/01/22 08:41:19;;;;;;;7.40;2.38;;;;;;;;;;7373919;19;20035;-74
2024/01/22 08:43:44;;;;;;;5.20;1.90;;;;;;;;;;7375584;19;20033;-75
2024/01/22 08:46:10;;;;;;;6.00;1.92;;;;;;;;;;7399145;19;20027;-75
2024/01/22 08:48:35;;;;;;;6.15;2.38;;;;;;;;;;7372977;19;20010;-74
2024/01/22 08:51:00;;;;;;;2.90;1.95;;;;;;;;;;7371664;19;20019;-74
2024/01/22 08:53:26;;;;;;;4.63;2.00;;;;;;;;;;7371014;19;20026;-73
2024/01/22 08:55:51;;;;;;;5.57;2.00;;;;;;;;;;7369152;19;20002;-74
2024/01/22 08:58:17;;;;;;;5.43;2.30;;;;;;;;;;7391972;19;20007;-75
2024/01/22 09:00:42;;;;;;;5.97;2.10;;;;;;;;;;7371316;19;20039;-75
2024/01/22 09:03:08;;;;;;;4.78;2.30;;;;;;;;;;7370853;19;20072;-74
2024/01/22 09:05:34;;;;;;;3.60;1.85;;;;;;;;;;7371377;19;20021;-74
2024/01/22 09:07:59;;;;;;;4.40;2.08;;;;;;;;;;7370327;19;20118;-74
2024/01/22 09:10:26;;;;;;;5.72;1.90;;;;;;;;;;7392972;19;20013;-74
2024/01/22 09:12:52;;;;;;;5.47;2.20;;;;;;;;;;7369611;19;20034;-74
2024/01/22 09:15:20;;;;;;;5.78;1.77;;;;;;;;;;7369340;19;20097;-74
2024/01/22 09:17:45;;;;;;;5.53;2.22;;;;;;;;;;7363951;19;20011;-74
2024/01/22 09:20:11;;;;;;;5.55;1.85;;;;;;;;;;7370874;19;20021;-74
2024/01/22 09:22:37;;;;;;;5.00;1.98;;;;;;;;;;7391968;19;19998;-74
2024/01/22 09:25:03;;;;;;;5.93;2.40;;;;;;;;;;7371734;19;20027;-75
2024/01/22 09:27:29;;;;;;;5.43;2.10;;;;;;;;;;7369452;19;20014;-74
2024/01/22 09:29:55;;;;;;;4.13;2.00;;;;;;;;;;7370142;19;20362;-73
2024/01/22 09:32:21;;;;;;;4.18;2.03;;;;;;;;;;7368359;19;20014;-73
2024/01/22 09:34:46;;;;;;;3.35;1.92;;;;;;;;;;7367755;19;20009;-73
2024/01/22 09:37:12;;;;;;;4.38;2.00;;;;;;;;;;7392233;19;20022;-74
2024/01/22 09:39:38;;;;;;;6.30;2.20;;;;;;;;;;7368931;19;20013;-73
2024/01/22 09:42:04;;;;;;;7.70;2.40;;;;;;;;;;7369961;19;20593;-73
2024/01/22 09:44:30;;;;;;;5.13;2.00;;;;;;;;;;7367879;19;20373;-75
2024/01/22 09:46:56;;;;;;;4.97;2.05;;;;;;;;;;7368619;19;20497;-75
2024/01/22 09:49:21;;;;;;;5.88;2.10;;;;;;;;;;7390452;19;20007;-74
2024/01/22 09:51:47;;;;;;;4.65;1.85;;;;;;;;;;7369035;19;20052;-73
2024/01/22 09:54:20;;;;;;;7.63;2.22;;;;;;;;;;7369722;19;20492;-74
2024/01/22 09:56:57;;;;;;;5.70;1.88;;;;;;;;;;7369039;19;20030;-73
2024/01/22 09:59:25;;;;;;;3.55;1.90;;;;;;;;;;7368845;19;20046;-73
2024/01/22 10:01:52;;;;;;;5.07;1.92;;;;;;;;;;7369455;19;19998;-73
2024/01/22 10:04:18;;;;;;;5.13;2.22;;;;;;;;;;7389272;19;20070;-73
2024/01/22 10:06:45;;;;;;;6.05;2.10;;;;;;;;;;7369835;19;20019;-73
2024/01/22 10:09:15;;;;;;;5.13;2.10;;;;;;;;;;7368056;19;20022;-73
2024/01/22 10:11:40;;;;;;;5.05;2.10;;;;;;;;;;7368128;19;20010;-72
2024/01/22 10:14:06;;;;;;;5.03;1.90;;;;;;;;;;7367750;19;20010;-75
2024/01/22 10:16:31;;;;;;;4.18;2.03;;;;;;;;;;7390731;19;20002;-73
2024/01/22 10:19:08;;;;;;;4.20;1.85;;;;;;;;;;7369439;19;20464;-73
2024/01/22 10:21:34;;;;;;;6.80;2.05;;;;;;;;;;7368448;19;20010;-73
2024/01/22 10:24:04;;;;;;;4.57;1.80;;;;;;;;;;7368967;19;20357;-74
2024/01/22 10:26:30;;;;;;;3.80;1.95;;;;;;;;;;7368124;19;20425;-73
2024/01/22 10:29:16;;;;;;;4.18;2.00;;;;;;;;;;7367917;19;20006;-73
2024/01/22 10:31:54;;;;;;;4.93;2.28;;;;;;;;;;7384498;19;20023;-73
2024/01/22 10:34:20;;;;;;;6.63;1.70;;;;;;;;;;7391721;19;20002;-73
2024/01/22 10:36:45;;;;;;;4.60;1.85;;;;;;;;;;7368604;19;20038;-73
2024/01/22 10:39:10;;;;;;;5.78;3.05;;;;;;;;;;7368040;19;20510;-73
2024/01/22 10:41:40;;;;;;;4.53;2.30;;;;;;;;;;7367253;19;20086;-73
2024/01/22 10:44:06;;;;;;;6.88;2.38;;;;;;;;;;7367130;19;20015;-72
2024/01/22 10:46:31;;;;;;;5.25;2.60;;;;;;;;;;7389287;19;20007;-73
2024/01/22 10:48:57;;;;;;;6.85;2.65;;;;;;;;;;7365593;19;20035;-74
2024/01/22 10:51:25;;;;;;;7.65;2.70;;;;;;;;;;7366701;19;20014;-73
2024/01/22 10:53:52;;;;;;;6.70;2.70;;;;;;;;;;7366491;19;20509;-73
2024/01/22 10:56:22;;;;;;;4.07;2.15;;;;;;;;;;7367121;19;20034;-73
2024/01/22 10:58:48;;;;;;;6.30;2.60;;;;;;;;;;7366839;19;20039;-73
2024/01/22 11:01:15;;;;;;;7.00;2.50;;;;;;;;;;7389026;19;20003;-73
2024/01/22 11:03:49;;;;;;;4.75;2.40;;;;;;;;;;7364809;19;20521;-73
2024/01/22 11:06:23;;;;;;;7.90;3.03;;;;;;;;;;7366022;19;20006;-73
2024/01/22 11:08:50;;;;;;;6.13;2.30;;;;;;;;;;7365800;19;20010;-74
2024/01/22 11:11:20;;;;;;;5.82;2.00;;;;;;;;;;7366017;19;20730;-74
2024/01/22 11:13:51;;;;;;;7.53;2.92;;;;;;;;;;7365234;19;20014;-74
2024/01/22 11:16:19;;;;;;;6.32;2.47;;;;;;;;;;7388823;19;20464;-74
2024/01/22 11:18:55;;;;;;;5.03;2.10;;;;;;;;;;7365211;19;20494;-75
2024/01/22 11:21:21;;;;;;;2.65;1.77;;;;;;;;;;7366027;19;20065;-74
2024/01/22 11:24:19;;;;;;;5.80;2.05;;;;;;;;;;7365508;19;20556;-76
2024/01/22 11:26:50;;;;;;;6.18;2.20;;;;;;;;;;7366577;19;20026;-74
2024/01/22 11:29:24;;;;;;;5.95;2.20;;;;;;;;;;7366829;19;20018;-73
2024/01/22 11:31:50;;;;;;;4.07;1.88;;;;;;;;;;7364344;19;20006;-73
2024/01/22 11:34:40;;;;;;;6.85;2.30;;;;;;;;;;7383431;19;20095;-74
2024/01/22 11:37:09;;;;;;;6.38;2.08;;;;;;;;;;7364614;19;20035;-72
2024/01/22 11:39:42;;;;;;;7.60;2.47;;;;;;;;;;7364143;19;20014;-73
2024/01/22 11:42:17;;;;;;;4.85;2.42;;;;;;;;;;7363944;19;20007;-74
2024/01/22 11:44:43;;;;;;;4.95;2.08;;;;;;;;;;7362055;19;20081;-74
2024/01/22 11:47:10;;;;;;;4.78;1.90;;;;;;;;;;7364349;19;20010;-74
2024/01/22 11:49:38;;;;;;;6.05;2.00;;;;;;;;;;7386729;19;20006;-74
2024/01/22 11:52:10;;;;;;;5.07;1.83;;;;;;;;;;7365866;19;20002;-73
2024/01/22 11:54:36;;;;;;;3.72;1.90;;;;;;;;;;7366427;19;20775;-74
2024/01/22 11:57:02;;;;;;;4.55;1.83;;;;;;;;;;7366185;19;20025;-73
2024/01/22 11:59:28;;;;;;;4.53;2.20;;;;;;;;;;7363595;19;20078;-73
2024/01/22 12:02:05;;;;;;;4.47;2.10;;;;;;;;;;7365855;19;20010;-73
2024/01/22 12:04:30;;;;;;;4.00;1.90;;;;;;;;;;7386676;19;20062;-72
2024/01/22 12:06:56;;;;;;;4.13;1.90;;;;;;;;;;7366568;19;20033;-74
2024/01/22 12:09:21;;;;;;;6.07;1.80;;;;;;;;;;7365362;19;20529;-72
2024/01/22 12:11:51;;;;;;;6.10;1.92;;;;;;;;;;7367545;19;20084;-72
2024/01/22 12:14:17;;;;;;;4.38;2.03;;;;;;;;;;7365358;19;20014;-73
2024/01/22 12:16:42;;;;;;;3.83;1.83;;;;;;;;;;7367737;19;20012;-74
2024/01/22 12:19:11;;;;;;;4.82;2.10;;;;;;;;;;7385881;19;20002;-72
2024/01/22 12:21:39;;;;;;;6.38;2.03;;;;;;;;;;7365759;19;20041;-73
2024/01/22 12:24:14;;;;;;;6.13;2.00;;;;;;;;;;7365676;19;20006;-73
2024/01/22 12:26:40;;;;;;;4.32;2.30;;;;;;;;;;7365715;19;20010;-73
2024/01/22 12:29:07;;;;;;;4.10;1.80;;;;;;;;;;7366135;19;20010;-73
2024/01/22 12:31:32;;;;;;;7.00;2.17;;;;;;;;;;7387487;19;20450;-72
2024/01/22 12:34:12;;;;;;;4.43;1.80;;;;;;;;;;7369603;19;20084;-73
2024/01/22 12:36:38;;;;;;;5.53;2.00;;;;;;;;;;7367051;19;20338;-73
2024/01/22 12:39:06;;;;;;;3.80;1.88;;;;;;;;;;7372260;19;20003;-72
2024/01/22 12:41:32;;;;;;;4.35;2.00;;;;;;;;;;7373648;19;20018;-73
2024/01/22 12:43:58;;;;;;;4.68;1.85;;;;;;;;;;7373813;19;20411;-70
2024/01/22 12:46:24;;;;;;;3.63;1.90;;;;;;;;;;7396816;19;20020;-72
2024/01/22 12:48:50;;;;;;;4.90;2.00;;;;;;;;;;7374783;19;20027;-72
2024/01/22 12:51:18;;;;;;;4.10;1.80;;;;;;;;;;7375628;19;20022;-72
2024/01/22 12:53:46;;;;;;;3.95;2.00;;;;;;;;;;7375419;19;20011;-72
2024/01/22 12:56:12;;;;;;;2.88;1.92;;;;;;;;;;7370733;19;20006;-73
2024/01/22 12:58:38;;;;;;;4.30;1.80;;;;;;;;;;7393592;19;20010;-73
2024/01/22 13:01:06;;;;;;;3.38;1.83;;;;;;;;;;7372990;19;20047;-72
2024/01/22 13:03:32;;;;;;;4.20;1.70;;;;;;;;;;7370804;19;20006;-71
2024/01/22 13:05:57;;;;;;;3.58;1.52;;;;;;;;;;7371284;19;20785;-72
2024/01/22 13:08:23;;;;;;;3.47;1.90;;;;;;;;;;7370231;19;20014;-72
2024/01/22 13:10:48;;;;;;;4.72;1.70;;;;;;;;;;7371660;19;20007;-71
2024/01/22 13:13:14;;;;;;;5.45;1.85;;;;;;;;;;7393790;19;20041;-71
2024/01/22 13:15:41;;;;;;;3.28;1.80;;;;;;;;;;7375626;19;20487;-71
2024/01/22 13:18:07;;;;;;;5.15;1.70;;;;;;;;;;7371072;19;20011;-73
2024/01/22 13:20:32;;;;;;;3.42;1.70;;;;;;;;;;7370641;19;20014;-72
2024/01/22 13:22:58;;;;;;;3.22;1.60;;;;;;;;;;7370367;19;20021;-72
2024/01/22 13:25:23;;;;;;;6.35;2.15;;;;;;;;;;7391579;19;20038;-72
2024/01/22 13:27:49;;;;;;;4.10;1.90;;;;;;;;;;7369450;19;20443;-72
2024/01/22 13:30:18;;;;;;;4.13;1.85;;;;;;;;;;7370612;19;20052;-71
2024/01/22 13:32:43;;;;;;;3.65;1.98;;;;;;;;;;7369492;19;20006;-72
2024/01/22 13:35:10;;;;;;;4.53;1.90;;;;;;;;;;7367819;19;20106;-71
2024/01/22 13:37:35;;;;;;;4.20;2.03;;;;;;;;;;7390288;19;19998;-71
2024/01/22 13:40:01;;;;;;;3.83;1.90;;;;;;;;;;7370473;19;20027;-72
2024/01/22 13:42:26;;;;;;;2.90;1.70;;;;;;;;;;7370947;19;20007;-72
2024/01/22 13:44:51;;;;;;;2.88;1.90;;;;;;;;;;7368331;19;20088;-73
2024/01/22 13:47:19;;;;;;;3.13;1.85;;;;;;;;;;7370660;19;20118;-72
2024/01/22 13:49:44;;;;;;;3.38;1.80;;;;;;;;;;7369237;19;20003;-71
2024/01/22 13:52:09;;;;;;;5.53;1.90;;;;;;;;;;7390624;19;20018;-72
2024/01/22 13:54:35;;;;;;;3.72;1.75;;;;;;;;;;7369131;19;20019;-71
2024/01/22 13:57:01;;;;;;;2.50;1.63;;;;;;;;;;7370481;19;20608;-71
2024/01/22 13:59:27;;;;;;;2.85;1.88;;;;;;;;;;7368913;19;20006;-71
2024/01/22 14:01:52;;;;;;;4.20;2.10;;;;;;;;;;7368842;19;20593;-73
2024/01/22 14:04:17;;;;;;;3.58;1.95;;;;;;;;;;7389130;19;20505;-72
2024/01/22 14:06:46;;;;;;;3.17;1.80;;;;;;;;;;7368944;19;20014;-73
2024/01/22 14:09:11;;;;;;;4.57;2.10;;;;;;;;;;7368642;19;20024;-74
2024/01/22 14:11:36;;;;;;;4.75;1.90;;;;;;;;;;7368495;19;20615;-74
2024/01/22 14:14:02;;;;;;;5.95;2.13;;;;;;;;;;7367580;19;20012;-73
2024/01/22 14:16:28;;;;;;;4.13;2.10;;;;;;;;;;7390104;19;20025;-73
2024/01/22 14:18:54;;;;;;;5.13;2.10;;;;;;;;;;7367202;19;20016;-73
2024/01/22 14:21:19;;;;;;;3.40;2.10;;;;;;;;;;7367709;19;20054;-73
2024/01/22 14:23:44;;;;;;;5.88;2.17;;;;;;;;;;7368452;19;20115;-73
2024/01/22 14:26:10;;;;;;;5.35;2.30;;;;;;;;;;7367865;19;20030;-73
2024/01/22 14:28:35;;;;;;;5.88;2.30;;;;;;;;;;7388024;19;20006;-73
2024/01/22 14:31:02;;;;;;;6.63;2.45;;;;;;;;;;7368028;19;20479;-73
2024/01/22 14:33:27;;;;;;;4.32;2.45;;;;;;;;;;7366904;19;20018;-73